sensor_id;sensor_type;location;lat;lon;timestamp;pressure;altitude;pressure_sealevel;temperature;humidity
6393;BME280;3229;42.674;23.282;2023-01-26T00:02:15;95047.50;;;6.35;62.89
6393;BME280;3229;42.674;23.282;2023-01-26T00:04:42;95052.69;;;6.33;62.92
6393;BME280;3229;42.674;23.282;2023-01-26T00:07:08;95053.50;;;6.34;62.78
6393;BME280;3229;42.674;23.282;2023-01-26T00:09:35;95035.97;;;6.31;62.56
6393;BME280;3229;42.674;23.282;2023-01-26T00:12:04;95041.94;;;6.29;62.83
6393;BME280;3229;42.674;23.282;2023-01-26T00:14:31;95050.97;;;6.34;62.81
6393;BME280;3229;42.674;23.282;2023-01-26T00:17:15;95067.03;;;6.34;62.64
6393;BME280;3229;42.674;23.282;2023-01-26T00:19:51;95061.13;;;6.34;62.72
6393;BME280;3229;42.674;23.282;2023-01-26T00:22:18;95059.41;;;6.34;62.54
6393;BME280;3229;42.674;23.282;2023-01-26T00:24:45;95056.84;;;6.34;62.52
6393;BME280;3229;42.674;23.282;2023-01-26T00:27:13;95058.72;;;6.32;62.60
6393;BME280;3229;42.674;23.282;2023-01-26T00:29:39;95045.28;;;6.30;62.65
6393;BME280;3229;42.674;23.282;2023-01-26T00:32:06;95042.03;;;6.28;62.69
6393;BME280;3229;42.674;23.282;2023-01-26T00:34:33;95047.25;;;6.26;62.58
6393;BME280;3229;42.674;23.282;2023-01-26T00:37:00;95029.53;;;6.25;62.55
6393;BME280;3229;42.674;23.282;2023-01-26T00:39:27;95021.22;;;6.23;62.48
6393;BME280;3229;42.674;23.282;2023-01-26T00:41:53;95029.78;;;6.22;62.49
6393;BME280;3229;42.674;23.282;2023-01-26T00:44:36;95017.28;;;6.19;62.49
6393;BME280;3229;42.674;23.282;2023-01-26T00:47:04;95028.34;;;6.18;62.47
6393;BME280;3229;42.674;23.282;2023-01-26T00:49:31;95030.16;;;6.16;62.51
6393;BME280;3229;42.674;23.282;2023-01-26T00:51:57;95017.59;;;6.14;62.50
6393;BME280;3229;42.674;23.282;2023-01-26T00:54:24;95026.19;;;6.12;62.37
6393;BME280;3229;42.674;23.282;2023-01-26T00:56:51;95027.13;;;6.11;62.37
6393;BME280;3229;42.674;23.282;2023-01-26T00:59:18;95002.53;;;6.11;62.38
6393;BME280;3229;42.674;23.282;2023-01-26T01:01:46;95010.16;;;6.11;62.40
6393;BME280;3229;42.674;23.282;2023-01-26T01:04:14;95003.34;;;6.12;62.34
6393;BME280;3229;42.674;23.282;2023-01-26T01:06:41;94997.34;;;6.13;62.34
6393;BME280;3229;42.674;23.282;2023-01-26T01:09:08;95004.97;;;6.13;62.19
6393;BME280;3229;42.674;23.282;2023-01-26T01:11:35;95000.81;;;6.12;62.35
6393;BME280;3229;42.674;23.282;2023-01-26T01:14:03;95009.25;;;6.12;62.12
6393;BME280;3229;42.674;23.282;2023-01-26T01:16:29;95001.75;;;6.11;62.17
6393;BME280;3229;42.674;23.282;2023-01-26T01:18:58;95001.84;;;6.09;62.27
6393;BME280;3229;42.674;23.282;2023-01-26T01:21:24;94995.13;;;6.08;62.30
6393;BME280;3229;42.674;23.282;2023-01-26T01:23:51;94997.78;;;6.07;62.30
6393;BME280;3229;42.674;23.282;2023-01-26T01:26:18;94998.91;;;6.02;62.18
6393;BME280;3229;42.674;23.282;2023-01-26T01:28:45;94982.06;;;6.01;62.28
6393;BME280;3229;42.674;23.282;2023-01-26T01:31:14;94997.66;;;6.08;62.11
6393;BME280;3229;42.674;23.282;2023-01-26T01:33:41;94978.59;;;6.02;61.98
6393;BME280;3229;42.674;23.282;2023-01-26T01:36:14;94993.50;;;6.07;62.04
6393;BME280;3229;42.674;23.282;2023-01-26T01:38:42;94997.09;;;6.05;62.10
6393;BME280;3229;42.674;23.282;2023-01-26T01:41:10;94989.56;;;6.03;61.94
6393;BME280;3229;42.674;23.282;2023-01-26T01:43:37;94992.00;;;6.05;62.02
6393;BME280;3229;42.674;23.282;2023-01-26T01:46:06;94983.56;;;6.04;61.87
6393;BME280;3229;42.674;23.282;2023-01-26T01:48:40;94987.13;;;6.01;62.02
6393;BME280;3229;42.674;23.282;2023-01-26T01:51:16;94987.22;;;6.00;61.98
6393;BME280;3229;42.674;23.282;2023-01-26T01:53:46;94956.66;;;5.89;61.93
6393;BME280;3229;42.674;23.282;2023-01-26T01:56:16;94978.59;;;6.02;61.91
6393;BME280;3229;42.674;23.282;2023-01-26T01:58:47;94978.59;;;6.02;61.99
6393;BME280;3229;42.674;23.282;2023-01-26T02:01:15;94975.94;;;6.04;61.82
6393;BME280;3229;42.674;23.282;2023-01-26T02:03:43;94976.06;;;6.02;61.80
6393;BME280;3229;42.674;23.282;2023-01-26T02:06:15;94967.00;;;5.98;61.79
6393;BME280;3229;42.674;23.282;2023-01-26T02:08:46;94990.59;;;6.00;61.66
6393;BME280;3229;42.674;23.282;2023-01-26T02:11:16;94967.75;;;6.00;61.74
6393;BME280;3229;42.674;23.282;2023-01-26T02:13:46;94965.28;;;5.99;61.52
6393;BME280;3229;42.674;23.282;2023-01-26T02:16:14;94963.56;;;5.99;61.51
6393;BME280;3229;42.674;23.282;2023-01-26T02:18:40;94957.66;;;5.99;61.41
6393;BME280;3229;42.674;23.282;2023-01-26T02:21:09;94956.88;;;5.98;61.60
6393;BME280;3229;42.674;23.282;2023-01-26T02:23:48;94935.31;;;5.91;61.51
6393;BME280;3229;42.674;23.282;2023-01-26T02:26:19;94932.41;;;5.97;61.58
6393;BME280;3229;42.674;23.282;2023-01-26T02:28:46;94929.06;;;5.97;61.54
6393;BME280;3229;42.674;23.282;2023-01-26T02:31:14;94915.91;;;5.90;61.48
6393;BME280;3229;42.674;23.282;2023-01-26T02:33:42;94919.91;;;5.94;61.57
6393;BME280;3229;42.674;23.282;2023-01-26T02:36:15;94923.38;;;5.93;61.51
6393;BME280;3229;42.674;23.282;2023-01-26T02:38:45;94932.72;;;5.93;61.51
6393;BME280;3229;42.674;23.282;2023-01-26T02:41:14;94918.56;;;5.89;61.39
6393;BME280;3229;42.674;23.282;2023-01-26T02:44:06;94915.75;;;5.93;61.45
6393;BME280;3229;42.674;23.282;2023-01-26T02:46:33;94912.56;;;5.90;61.58
6393;BME280;3229;42.674;23.282;2023-01-26T02:48:59;94916.56;;;5.94;61.47
6393;BME280;3229;42.674;23.282;2023-01-26T02:51:43;94892.38;;;5.88;61.42
6393;BME280;3229;42.674;23.282;2023-01-26T02:54:10;94909.13;;;5.91;61.32
6393;BME280;3229;42.674;23.282;2023-01-26T02:56:57;94898.16;;;5.90;61.23
6393;BME280;3229;42.674;23.282;2023-01-26T02:59:24;94871.38;;;5.73;61.56
6393;BME280;3229;42.674;23.282;2023-01-26T03:01:52;94897.34;;;5.90;61.38
6393;BME280;3229;42.674;23.282;2023-01-26T03:04:21;94894.13;;;5.88;61.42
6393;BME280;3229;42.674;23.282;2023-01-26T03:06:47;94890.06;;;5.85;61.49
6393;BME280;3229;42.674;23.282;2023-01-26T03:09:14;94896.75;;;5.86;61.31
6393;BME280;3229;42.674;23.282;2023-01-26T03:11:41;94884.38;;;5.82;61.39
6393;BME280;3229;42.674;23.282;2023-01-26T03:14:08;94847.44;;;5.65;61.28
6393;BME280;3229;42.674;23.282;2023-01-26T03:16:37;94879.22;;;5.83;61.25
6393;BME280;3229;42.674;23.282;2023-01-26T03:19:04;94872.41;;;5.84;61.31
6393;BME280;3229;42.674;23.282;2023-01-26T03:21:49;94866.59;;;5.82;61.43
6393;BME280;3229;42.674;23.282;2023-01-26T03:24:33;94861.53;;;5.82;61.26
6393;BME280;3229;42.674;23.282;2023-01-26T03:27:17;94857.38;;;5.81;61.46
6393;BME280;3229;42.674;23.282;2023-01-26T03:29:52;94853.31;;;5.78;61.32
6393;BME280;3229;42.674;23.282;2023-01-26T03:32:20;94865.78;;;5.81;61.20
6393;BME280;3229;42.674;23.282;2023-01-26T03:34:47;94865.00;;;5.81;61.21
6393;BME280;3229;42.674;23.282;2023-01-26T03:37:14;94857.38;;;5.81;61.24
6393;BME280;3229;42.674;23.282;2023-01-26T03:39:46;94857.38;;;5.81;61.28
6393;BME280;3229;42.674;23.282;2023-01-26T03:42:30;94853.53;;;5.75;61.25
6393;BME280;3229;42.674;23.282;2023-01-26T03:45:14;94851.56;;;5.78;61.24
6393;BME280;3229;42.674;23.282;2023-01-26T03:48:05;94856.66;;;5.78;61.40
6393;BME280;3229;42.674;23.282;2023-01-26T03:50:49;94850.78;;;5.78;61.13
6393;BME280;3229;42.674;23.282;2023-01-26T03:53:33;94851.69;;;5.77;61.16
6393;BME280;3229;42.674;23.282;2023-01-26T03:56:18;94840.63;;;5.78;61.21
6393;BME280;3229;42.674;23.282;2023-01-26T03:58:47;94829.38;;;5.69;61.25
6393;BME280;3229;42.674;23.282;2023-01-26T04:01:15;94838.09;;;5.78;61.23
6393;BME280;3229;42.674;23.282;2023-01-26T04:03:47;94842.25;;;5.79;61.12
6393;BME280;3229;42.674;23.282;2023-01-26T04:06:32;94836.34;;;5.78;61.18
6393;BME280;3229;42.674;23.282;2023-01-26T04:09:17;94833.81;;;5.78;61.02
6393;BME280;3229;42.674;23.282;2023-01-26T04:11:44;94834.41;;;5.82;61.14
6393;BME280;3229;42.674;23.282;2023-01-26T04:14:12;94812.03;;;5.76;61.04
6393;BME280;3229;42.674;23.282;2023-01-26T04:16:56;94810.09;;;5.79;61.11
6393;BME280;3229;42.674;23.282;2023-01-26T04:19:42;94814.34;;;5.79;61.31
6393;BME280;3229;42.674;23.282;2023-01-26T04:22:26;94803.38;;;5.78;61.17
6393;BME280;3229;42.674;23.282;2023-01-26T04:24:53;94788.97;;;5.79;61.05
6393;BME280;3229;42.674;23.282;2023-01-26T04:27:21;94798.22;;;5.80;60.94
6393;BME280;3229;42.674;23.282;2023-01-26T04:29:48;94789.78;;;5.79;61.18
6393;BME280;3229;42.674;23.282;2023-01-26T04:32:15;94783.06;;;5.78;61.24
6393;BME280;3229;42.674;23.282;2023-01-26T04:34:43;94794.84;;;5.79;61.27
6393;BME280;3229;42.674;23.282;2023-01-26T04:37:09;94786.44;;;5.79;61.20
6393;BME280;3229;42.674;23.282;2023-01-26T04:39:36;94779.56;;;5.68;61.20
6393;BME280;3229;42.674;23.282;2023-01-26T04:42:03;94791.41;;;5.81;61.29
6393;BME280;3229;42.674;23.282;2023-01-26T04:44:30;94796.47;;;5.81;61.28
6393;BME280;3229;42.674;23.282;2023-01-26T04:46:57;94799.81;;;5.81;61.15
6393;BME280;3229;42.674;23.282;2023-01-26T04:49:23;94813.50;;;5.78;61.06
6393;BME280;3229;42.674;23.282;2023-01-26T04:51:52;94803.16;;;5.82;61.21
6393;BME280;3229;42.674;23.282;2023-01-26T04:54:18;94804.69;;;5.84;61.04
6393;BME280;3229;42.674;23.282;2023-01-26T04:56:45;94811.50;;;5.84;60.91
6393;BME280;3229;42.674;23.282;2023-01-26T04:59:12;94805.69;;;5.82;60.94
6393;BME280;3229;42.674;23.282;2023-01-26T05:01:39;94771.78;;;5.59;61.02
6393;BME280;3229;42.674;23.282;2023-01-26T05:04:07;94815.84;;;5.82;61.02
6393;BME280;3229;42.674;23.282;2023-01-26T05:06:34;94809.03;;;5.82;61.16
6393;BME280;3229;42.674;23.282;2023-01-26T05:09:02;94800.63;;;5.82;60.98
6393;BME280;3229;42.674;23.282;2023-01-26T05:11:29;94799.81;;;5.81;61.01
6393;BME280;3229;42.674;23.282;2023-01-26T05:13:56;94796.34;;;5.82;60.98
6393;BME280;3229;42.674;23.282;2023-01-26T05:16:23;94796.28;;;5.84;60.95
6393;BME280;3229;42.674;23.282;2023-01-26T05:18:50;94761.19;;;5.65;60.89
6393;BME280;3229;42.674;23.282;2023-01-26T05:21:16;94803.75;;;5.85;60.97
6393;BME280;3229;42.674;23.282;2023-01-26T05:23:43;94800.31;;;5.86;60.86
6393;BME280;3229;42.674;23.282;2023-01-26T05:26:11;94796.97;;;5.86;60.83
6393;BME280;3229;42.674;23.282;2023-01-26T05:28:38;94799.41;;;5.87;60.83
6393;BME280;3229;42.674;23.282;2023-01-26T05:31:05;94795.22;;;5.86;60.80
6393;BME280;3229;42.674;23.282;2023-01-26T05:33:32;94782.53;;;5.86;60.73
6393;BME280;3229;42.674;23.282;2023-01-26T05:36:02;94790.88;;;5.88;60.80
6393;BME280;3229;42.674;23.282;2023-01-26T05:38:29;94775.53;;;5.90;60.71
6393;BME280;3229;42.674;23.282;2023-01-26T05:40:56;94785.69;;;5.90;60.66
6393;BME280;3229;42.674;23.282;2023-01-26T05:43:25;94791.56;;;5.90;60.72
6393;BME280;3229;42.674;23.282;2023-01-26T05:45:51;94780.59;;;5.90;60.83
6393;BME280;3229;42.674;23.282;2023-01-26T05:48:18;94782.22;;;5.91;60.81
6393;BME280;3229;42.674;23.282;2023-01-26T05:50:45;94791.50;;;5.92;60.68
6393;BME280;3229;42.674;23.282;2023-01-26T05:53:12;94793.28;;;5.90;60.71
6393;BME280;3229;42.674;23.282;2023-01-26T05:55:39;94785.88;;;5.87;60.68
6393;BME280;3229;42.674;23.282;2023-01-26T05:58:06;94789.47;;;5.84;60.76
6393;BME280;3229;42.674;23.282;2023-01-26T06:00:34;94789.03;;;5.90;60.79
6393;BME280;3229;42.674;23.282;2023-01-26T06:03:01;94769.19;;;6.32;94.35
6393;BME280;3229;42.674;23.282;2023-01-26T06:05:27;94788.59;;;6.91;90.21
6393;BME280;3229;42.674;23.282;2023-01-26T06:07:54;94785.88;;;7.05;83.59
6393;BME280;3229;42.674;23.282;2023-01-26T06:10:21;94784.25;;;7.04;78.54
6393;BME280;3229;42.674;23.282;2023-01-26T06:12:48;94745.19;;;7.39;99.63
6393;BME280;3229;42.674;23.282;2023-01-26T06:15:14;94766.50;;;8.57;100.00
6393;BME280;3229;42.674;23.282;2023-01-26T06:17:42;94760.16;;;9.54;98.13
6393;BME280;3229;42.674;23.282;2023-01-26T06:20:10;94763.69;;;10.32;93.24
6393;BME280;3229;42.674;23.282;2023-01-26T06:22:38;94765.09;;;11.02;89.31
6393;BME280;3229;42.674;23.282;2023-01-26T06:25:06;94762.88;;;11.54;86.24
6393;BME280;3229;42.674;23.282;2023-01-26T06:27:33;94745.28;;;11.42;82.96
6393;BME280;3229;42.674;23.282;2023-01-26T06:30:00;94768.34;;;11.42;77.14
6393;BME280;3229;42.674;23.282;2023-01-26T06:32:27;94753.59;;;11.16;72.96
6393;BME280;3229;42.674;23.282;2023-01-26T06:34:56;94755.31;;;10.88;70.38
6393;BME280;3229;42.674;23.282;2023-01-26T06:37:23;94755.19;;;10.61;69.35
6393;BME280;3229;42.674;23.282;2023-01-26T06:39:50;94754.00;;;10.36;68.29
6393;BME280;3229;42.674;23.282;2023-01-26T06:42:16;94749.66;;;10.07;67.93
6393;BME280;3229;42.674;23.282;2023-01-26T06:44:43;94749.75;;;9.86;67.44
6393;BME280;3229;42.674;23.282;2023-01-26T06:47:10;94763.00;;;9.61;67.62
6393;BME280;3229;42.674;23.282;2023-01-26T06:49:38;94758.19;;;9.37;67.38
6393;BME280;3229;42.674;23.282;2023-01-26T06:52:21;94755.59;;;9.17;67.50
6393;BME280;3229;42.674;23.282;2023-01-26T06:54:48;94752.50;;;8.93;67.26
6393;BME280;3229;42.674;23.282;2023-01-26T06:57:15;94753.78;;;8.77;67.54
6393;BME280;3229;42.674;23.282;2023-01-26T06:59:42;94742.41;;;8.61;67.35
6393;BME280;3229;42.674;23.282;2023-01-26T07:02:15;94742.56;;;8.48;67.76
6393;BME280;3229;42.674;23.282;2023-01-26T07:04:43;94735.88;;;8.36;67.91
6393;BME280;3229;42.674;23.282;2023-01-26T07:07:11;94751.22;;;8.24;68.06
6393;BME280;3229;42.674;23.282;2023-01-26T07:09:38;94734.47;;;8.11;68.02
6393;BME280;3229;42.674;23.282;2023-01-26T07:12:05;94720.16;;;7.98;68.16
6393;BME280;3229;42.674;23.282;2023-01-26T07:14:32;94729.91;;;7.93;67.65
6393;BME280;3229;42.674;23.282;2023-01-26T07:16:59;94725.09;;;7.79;67.37
6393;BME280;3229;42.674;23.282;2023-01-26T07:19:26;94748.44;;;7.84;66.97
6393;BME280;3229;42.674;23.282;2023-01-26T07:21:54;94737.25;;;7.75;66.62
6393;BME280;3229;42.674;23.282;2023-01-26T07:24:23;94732.16;;;7.75;66.19
6393;BME280;3229;42.674;23.282;2023-01-26T07:26:49;94704.53;;;7.60;65.82
6393;BME280;3229;42.674;23.282;2023-01-26T07:29:16;94733.31;;;7.71;65.61
6393;BME280;3229;42.674;23.282;2023-01-26T07:31:43;94719.56;;;7.74;64.93
6393;BME280;3229;42.674;23.282;2023-01-26T07:34:10;94723.59;;;7.76;64.76
6393;BME280;3229;42.674;23.282;2023-01-26T07:36:37;94723.59;;;7.76;64.62
6393;BME280;3229;42.674;23.282;2023-01-26T07:39:04;94719.31;;;7.77;64.41
6393;BME280;3229;42.674;23.282;2023-01-26T07:41:32;94714.69;;;7.71;63.97
6393;BME280;3229;42.674;23.282;2023-01-26T07:43:59;94718.50;;;7.76;63.73
6393;BME280;3229;42.674;23.282;2023-01-26T07:46:26;94714.47;;;7.74;63.44
6393;BME280;3229;42.674;23.282;2023-01-26T07:48:53;94719.44;;;7.75;63.26
6393;BME280;3229;42.674;23.282;2023-01-26T07:51:20;94719.44;;;7.75;62.98
6393;BME280;3229;42.674;23.282;2023-01-26T07:53:47;94728.69;;;7.76;62.86
6393;BME280;3229;42.674;23.282;2023-01-26T07:56:15;94727.88;;;7.76;62.70
6393;BME280;3229;42.674;23.282;2023-01-26T07:58:50;94725.59;;;7.73;62.33
6393;BME280;3229;42.674;23.282;2023-01-26T08:01:17;94723.84;;;7.73;62.45
6393;BME280;3229;42.674;23.282;2023-01-26T08:03:44;94688.81;;;7.54;62.15
6393;BME280;3229;42.674;23.282;2023-01-26T08:06:11;94717.13;;;7.72;62.42
6393;BME280;3229;42.674;23.282;2023-01-26T08:08:39;94697.84;;;7.59;62.16
6393;BME280;3229;42.674;23.282;2023-01-26T08:11:07;94718.84;;;7.72;61.84
6393;BME280;3229;42.674;23.282;2023-01-26T08:13:35;94718.75;;;7.73;61.75
6393;BME280;3229;42.674;23.282;2023-01-26T08:16:05;94701.97;;;7.71;61.63
6393;BME280;3229;42.674;23.282;2023-01-26T08:18:33;94715.63;;;7.70;61.57
6393;BME280;3229;42.674;23.282;2023-01-26T08:21:00;94692.72;;;7.70;61.43
6393;BME280;3229;42.674;23.282;2023-01-26T08:23:27;94699.56;;;7.69;61.42
6393;BME280;3229;42.674;23.282;2023-01-26T08:25:54;94697.81;;;7.70;61.25
6393;BME280;3229;42.674;23.282;2023-01-26T08:28:26;94683.59;;;7.67;61.11
6393;BME280;3229;42.674;23.282;2023-01-26T08:30:53;94696.44;;;7.66;61.06
6393;BME280;3229;42.674;23.282;2023-01-26T08:33:22;94696.09;;;7.70;61.06
6393;BME280;3229;42.674;23.282;2023-01-26T08:35:49;94695.28;;;7.70;61.03
6393;BME280;3229;42.674;23.282;2023-01-26T08:38:16;94701.31;;;7.69;60.75
6393;BME280;3229;42.674;23.282;2023-01-26T08:40:43;94665.56;;;7.59;60.76
6393;BME280;3229;42.674;23.282;2023-01-26T08:43:10;94681.63;;;7.71;60.76
6393;BME280;3229;42.674;23.282;2023-01-26T08:45:37;94684.97;;;7.71;60.64
6393;BME280;3229;42.674;23.282;2023-01-26T08:48:05;94684.72;;;7.74;60.18
6393;BME280;3229;42.674;23.282;2023-01-26T08:50:34;94680.22;;;7.78;60.36
6393;BME280;3229;42.674;23.282;2023-01-26T08:53:01;94687.72;;;7.79;60.21
6393;BME280;3229;42.674;23.282;2023-01-26T08:55:28;94697.66;;;7.83;59.97
6393;BME280;3229;42.674;23.282;2023-01-26T08:57:57;94696.06;;;7.82;59.83
6393;BME280;3229;42.674;23.282;2023-01-26T09:00:25;94684.13;;;7.82;59.78
6393;BME280;3229;42.674;23.282;2023-01-26T09:02:57;94680.53;;;7.85;59.86
6393;BME280;3229;42.674;23.282;2023-01-26T09:05:24;94682.84;;;7.88;59.95
6393;BME280;3229;42.674;23.282;2023-01-26T09:07:53;94681.91;;;7.89;59.38
6393;BME280;3229;42.674;23.282;2023-01-26T09:10:20;94674.19;;;7.79;59.66
6393;BME280;3229;42.674;23.282;2023-01-26T09:12:47;94691.84;;;7.92;59.56
6393;BME280;3229;42.674;23.282;2023-01-26T09:15:15;94683.41;;;7.91;59.35
6393;BME280;3229;42.674;23.282;2023-01-26T09:17:42;94678.97;;;7.93;59.07
6393;BME280;3229;42.674;23.282;2023-01-26T09:20:10;94651.44;;;7.66;59.10
6393;BME280;3229;42.674;23.282;2023-01-26T09:22:37;94666.75;;;7.87;59.10
6393;BME280;3229;42.674;23.282;2023-01-26T09:25:06;94664.22;;;7.87;59.06
6393;BME280;3229;42.674;23.282;2023-01-26T09:27:33;94672.50;;;7.89;58.91
6393;BME280;3229;42.674;23.282;2023-01-26T09:30:00;94659.34;;;7.84;58.92
6393;BME280;3229;42.674;23.282;2023-01-26T09:32:27;94643.06;;;7.75;58.87
6393;BME280;3229;42.674;23.282;2023-01-26T09:34:54;94651.56;;;7.86;58.96
6393;BME280;3229;42.674;23.282;2023-01-26T09:37:21;94645.94;;;7.82;59.05
6393;BME280;3229;42.674;23.282;2023-01-26T09:39:48;94634.81;;;7.83;58.72
6393;BME280;3229;42.674;23.282;2023-01-26T09:42:30;94646.06;;;7.80;58.75
6393;BME280;3229;42.674;23.282;2023-01-26T09:45:08;94652.41;;;7.86;58.71
6393;BME280;3229;42.674;23.282;2023-01-26T09:47:51;94654.13;;;7.86;58.55
6393;BME280;3229;42.674;23.282;2023-01-26T09:50:20;94660.84;;;7.87;58.69
6393;BME280;3229;42.674;23.282;2023-01-26T09:52:53;94642.91;;;7.88;58.61
6393;BME280;3229;42.674;23.282;2023-01-26T09:55:22;94632.72;;;7.88;58.76
6393;BME280;3229;42.674;23.282;2023-01-26T09:57:53;94635.69;;;7.93;58.38
6393;BME280;3229;42.674;23.282;2023-01-26T10:00:25;94636.41;;;7.95;58.57
6393;BME280;3229;42.674;23.282;2023-01-26T10:03:04;94550.41;;;7.46;58.38
6393;BME280;3229;42.674;23.282;2023-01-26T10:05:41;94605.09;;;7.84;58.38
6393;BME280;3229;42.674;23.282;2023-01-26T10:08:12;94622.22;;;8.02;58.34
6393;BME280;3229;42.674;23.282;2023-01-26T10:10:44;94622.22;;;8.02;58.26
6393;BME280;3229;42.674;23.282;2023-01-26T10:13:15;94617.25;;;8.01;58.26
6393;BME280;3229;42.674;23.282;2023-01-26T10:15:46;94602.94;;;8.00;58.06
6393;BME280;3229;42.674;23.282;2023-01-26T10:18:16;94599.63;;;8.09;58.22
6393;BME280;3229;42.674;23.282;2023-01-26T10:20:46;94579.00;;;8.12;58.06
6393;BME280;3229;42.674;23.282;2023-01-26T10:23:17;94584.63;;;8.16;58.08
6393;BME280;3229;42.674;23.282;2023-01-26T10:25:46;94564.25;;;8.16;57.87
6393;BME280;3229;42.674;23.282;2023-01-26T10:28:17;94572.75;;;8.16;57.80
6393;BME280;3229;42.674;23.282;2023-01-26T10:30:46;94560.09;;;8.15;57.75
6393;BME280;3229;42.674;23.282;2023-01-26T10:33:15;94543.06;;;8.15;57.74
6393;BME280;3229;42.674;23.282;2023-01-26T10:35:43;94544.34;;;8.21;57.55
6393;BME280;3229;42.674;23.282;2023-01-26T10:38:27;94513.69;;;8.11;57.55
6393;BME280;3229;42.674;23.282;2023-01-26T10:41:05;94525.44;;;8.23;57.54
6393;BME280;3229;42.674;23.282;2023-01-26T10:43:35;94522.88;;;8.23;57.33
6393;BME280;3229;42.674;23.282;2023-01-26T10:46:03;94511.38;;;8.29;57.39
6393;BME280;3229;42.674;23.282;2023-01-26T10:48:30;94491.13;;;8.27;57.29
6393;BME280;3229;42.674;23.282;2023-01-26T10:51:14;94507.16;;;8.39;57.18
6393;BME280;3229;42.674;23.282;2023-01-26T10:53:41;94499.66;;;8.38;57.07
6393;BME280;3229;42.674;23.282;2023-01-26T10:56:12;94504.88;;;8.46;56.89
6393;BME280;3229;42.674;23.282;2023-01-26T10:58:46;94493.38;;;8.51;56.94
6393;BME280;3229;42.674;23.282;2023-01-26T11:01:16;94484.41;;;8.57;56.85
6393;BME280;3229;42.674;23.282;2023-01-26T11:03:58;94483.47;;;8.58;56.69
6393;BME280;3229;42.674;23.282;2023-01-26T11:06:27;94465.38;;;8.61;56.73
6393;BME280;3229;42.674;23.282;2023-01-26T11:09:07;94463.63;;;8.62;56.55
6393;BME280;3229;42.674;23.282;2023-01-26T11:11:34;94473.56;;;8.74;56.52
6393;BME280;3229;42.674;23.282;2023-01-26T11:14:15;94462.31;;;8.77;56.44
6393;BME280;3229;42.674;23.282;2023-01-26T11:16:44;94458.69;;;8.79;56.32
6393;BME280;3229;42.674;23.282;2023-01-26T11:19:19;94451.97;;;8.78;56.28
6393;BME280;3229;42.674;23.282;2023-01-26T11:21:54;94451.97;;;8.88;56.23
6393;BME280;3229;42.674;23.282;2023-01-26T11:24:24;94455.88;;;8.92;56.29
6393;BME280;3229;42.674;23.282;2023-01-26T11:27:23;94446.06;;;8.97;56.27
6393;BME280;3229;42.674;23.282;2023-01-26T11:32:54;94433.19;;;9.09;55.88
6393;BME280;3229;42.674;23.282;2023-01-26T11:35:29;94431.72;;;9.16;55.87
6393;BME280;3229;42.674;23.282;2023-01-26T11:38:08;94429.41;;;9.22;55.71
6393;BME280;3229;42.674;23.282;2023-01-26T11:40:40;94415.59;;;9.25;55.36
6393;BME280;3229;42.674;23.282;2023-01-26T11:43:22;94425.38;;;9.39;55.60
6393;BME280;3229;42.674;23.282;2023-01-26T11:46:17;94425.75;;;9.44;55.45
6393;BME280;3229;42.674;23.282;2023-01-26T11:48:59;94411.41;;;9.43;55.48
6393;BME280;3229;42.674;23.282;2023-01-26T11:51:38;94426.16;;;9.49;55.38
6393;BME280;3229;42.674;23.282;2023-01-26T11:54:29;94422.16;;;9.47;55.41
6393;BME280;3229;42.674;23.282;2023-01-26T11:57:05;94383.66;;;9.21;55.37
6393;BME280;3229;42.674;23.282;2023-01-26T11:59:43;94420.28;;;9.39;55.51
6393;BME280;3229;42.674;23.282;2023-01-26T12:02:24;94410.63;;;9.33;55.64
6393;BME280;3229;42.674;23.282;2023-01-26T12:04:52;94399.19;;;9.27;55.62
6393;BME280;3229;42.674;23.282;2023-01-26T12:07:26;94341.78;;;8.85;55.51
6393;BME280;3229;42.674;23.282;2023-01-26T12:09:54;94399.63;;;9.13;55.62
6393;BME280;3229;42.674;23.282;2023-01-26T12:12:28;94387.69;;;9.14;55.94
6393;BME280;3229;42.674;23.282;2023-01-26T12:15:01;94384.72;;;9.09;55.99
6393;BME280;3229;42.674;23.282;2023-01-26T12:17:37;94341.78;;;8.85;55.92
6393;BME280;3229;42.674;23.282;2023-01-26T12:20:20;94367.81;;;8.98;56.16
6393;BME280;3229;42.674;23.282;2023-01-26T12:22:53;94359.66;;;8.94;55.79
6393;BME280;3229;42.674;23.282;2023-01-26T12:25:27;94356.69;;;8.89;56.03
6393;BME280;3229;42.674;23.282;2023-01-26T12:28:00;94356.28;;;8.84;56.06
6393;BME280;3229;42.674;23.282;2023-01-26T12:30:35;94358.84;;;8.84;56.06
6393;BME280;3229;42.674;23.282;2023-01-26T12:33:09;94338.19;;;8.77;55.96
6393;BME280;3229;42.674;23.282;2023-01-26T12:35:55;94345.56;;;8.80;55.99
6393;BME280;3229;42.674;23.282;2023-01-26T12:38:39;94338.47;;;8.74;56.12
6393;BME280;3229;42.674;23.282;2023-01-26T12:41:13;94333.34;;;8.74;56.19
6393;BME280;3229;42.674;23.282;2023-01-26T12:43:55;94338.88;;;8.70;56.33
6393;BME280;3229;42.674;23.282;2023-01-26T12:46:27;94333.09;;;8.68;56.23
6393;BME280;3229;42.674;23.282;2023-01-26T12:49:02;94329.06;;;8.65;56.22
6393;BME280;3229;42.674;23.282;2023-01-26T12:51:32;94332.44;;;8.66;56.41
6393;BME280;3229;42.674;23.282;2023-01-26T12:54:06;94335.22;;;8.63;56.58
6393;BME280;3229;42.674;23.282;2023-01-26T12:56:39;94326.13;;;8.60;56.60
6393;BME280;3229;42.674;23.282;2023-01-26T12:59:13;94324.66;;;8.58;56.79
6393;BME280;3229;42.674;23.282;2023-01-26T13:01:42;94312.16;;;8.54;56.78
6393;BME280;3229;42.674;23.282;2023-01-26T13:04:12;94313.78;;;8.56;56.82
6393;BME280;3229;42.674;23.282;2023-01-26T13:06:40;94306.56;;;8.51;56.74
6393;BME280;3229;42.674;23.282;2023-01-26T13:09:21;94326.25;;;8.59;56.79
6393;BME280;3229;42.674;23.282;2023-01-26T13:11:51;94326.25;;;8.59;56.85
6393;BME280;3229;42.674;23.282;2023-01-26T13:17:47;94324.50;;;8.59;57.12
6393;BME280;3229;42.674;23.282;2023-01-26T13:23:39;94310.72;;;8.52;57.19
6393;BME280;3229;42.674;23.282;2023-01-26T13:26:18;94322.34;;;8.54;57.24
6393;BME280;3229;42.674;23.282;2023-01-26T13:28:47;94308.97;;;8.52;57.24
6393;BME280;3229;42.674;23.282;2023-01-26T13:31:29;94300.63;;;8.50;57.24
6393;BME280;3229;42.674;23.282;2023-01-26T13:33:59;94301.31;;;8.52;57.32
6393;BME280;3229;42.674;23.282;2023-01-26T13:36:31;94305.19;;;8.57;57.33
6393;BME280;3229;42.674;23.282;2023-01-26T13:39:03;94305.34;;;8.55;57.22
6393;BME280;3229;42.674;23.282;2023-01-26T13:41:43;94299.41;;;8.54;57.13
6393;BME280;3229;42.674;23.282;2023-01-26T13:44:14;94309.63;;;8.54;57.46
6393;BME280;3229;42.674;23.282;2023-01-26T13:46:44;94303.88;;;8.52;57.58
6393;BME280;3229;42.674;23.282;2023-01-26T13:49:23;94299.81;;;8.50;57.44
6393;BME280;3229;42.674;23.282;2023-01-26T13:51:52;94306.00;;;8.47;57.46